Vigan, Philippines
Current Conditions -  °F | °C
As of 11:00 PM on Saturday 25 Oct 2014 (Local Time) from RPLI Reporting Station
Few Clouds Few Clouds  
Wind Chill: 79°   Ceiling: Unl
Heat Index: 82°   Visibility: 6mi
Dew Point: 75°   Wind: 0mph
Humidity: 89%   Direction: NA
Pressure: 29.91"   Gusts: NA
Location:  17.56°N, 120.37°E
Report Text: RPLI 251500Z 00000KT 9999 FEW019 26/24 Q1013 NOSIG RMK A2991
Loading
Personal Weather Stations






























Interactive Weather Map
Tropical Storm Tracking
New forecast layout! Learn more

10-Day Weather Forecast

Advertisements
Track Severe Weather on mobile